createdAt,value
2023-04-16T00:02:05.227Z,27.37
2023-04-16T00:05:09.340Z,27.06
2023-04-16T00:08:12.988Z,26.87
2023-04-16T00:11:16.541Z,27.28
2023-04-16T00:14:20.033Z,26.12
2023-04-16T00:17:23.569Z,26.88
2023-04-16T00:20:27.091Z,26.90
2023-04-16T00:23:30.411Z,27.12
2023-04-16T00:26:33.817Z,26.88
2023-04-16T00:29:37.480Z,26.44
2023-04-16T00:32:40.993Z,26.51
2023-04-16T00:35:47.543Z,26.22
2023-04-16T00:38:51.825Z,26.75
2023-04-16T00:41:55.355Z,26.72
2023-04-16T00:44:58.869Z,25.93
2023-04-16T00:48:02.862Z,26.02
2023-04-16T00:51:08.154Z,26.00
2023-04-16T00:54:11.674Z,25.68
2023-04-16T00:57:16.347Z,25.73
2023-04-16T01:00:19.773Z,26.01
2023-04-16T01:03:24.130Z,25.45
2023-04-16T01:06:28.644Z,26.22
2023-04-16T01:09:32.030Z,24.80
2023-04-16T01:12:35.498Z,24.91
2023-04-16T01:15:39.310Z,25.36
2023-04-16T01:18:42.672Z,24.79
2023-04-16T01:21:46.550Z,24.61
2023-04-16T01:24:50.019Z,24.61
2023-04-16T01:27:55.657Z,25.21
2023-04-16T01:30:59.146Z,24.63
2023-04-16T01:34:31.904Z,24.72
2023-04-16T01:37:35.408Z,25.12
2023-04-16T01:40:39.332Z,24.65
2023-04-16T01:43:43.371Z,24.81
2023-04-16T01:46:50.581Z,25.18
2023-04-16T01:49:54.246Z,24.67
2023-04-16T01:52:57.831Z,24.49
2023-04-16T01:56:01.349Z,25.08
2023-04-16T01:59:04.852Z,24.97
2023-04-16T02:02:16.972Z,25.05
2023-04-16T02:05:20.532Z,23.74
2023-04-16T02:08:24.331Z,24.86
2023-04-16T02:11:27.849Z,24.51
2023-04-16T02:14:33.189Z,24.27
2023-04-16T02:17:36.884Z,24.26
2023-04-16T02:20:47.774Z,24.60
2023-04-16T02:23:52.342Z,24.70
2023-04-16T02:27:02.256Z,25.04
2023-04-16T02:30:06.256Z,26.23
2023-04-16T02:33:13.777Z,26.26
2023-04-16T02:36:28.157Z,26.18
2023-04-16T02:39:32.545Z,25.95
2023-04-16T02:42:35.805Z,28.14
2023-04-16T02:45:39.466Z,28.63
2023-04-16T02:48:42.853Z,29.45
2023-04-16T02:51:46.458Z,30.27
2023-04-16T02:54:49.873Z,31.93
2023-04-16T02:57:53.813Z,32.20
2023-04-16T03:00:57.258Z,33.12
2023-04-16T03:04:00.967Z,39.20
2023-04-16T03:10:34.905Z,42.95
2023-04-16T03:13:39.050Z,43.58
2023-04-16T03:16:42.757Z,44.31
2023-04-16T03:19:46.258Z,44.97
2023-04-16T03:22:50.002Z,46.22
2023-04-16T03:25:53.524Z,46.82
2023-04-16T03:28:57.075Z,47.23
2023-04-16T03:32:01.073Z,48.43
2023-04-16T03:35:05.784Z,49.61
2023-04-16T03:38:09.478Z,51.50
2023-04-16T03:41:12.949Z,54.40
2023-04-16T03:44:17.353Z,56.18
2023-04-16T03:47:22.162Z,58.27
2023-04-16T03:50:28.626Z,59.12
2023-04-16T03:53:32.809Z,58.51
2023-04-16T03:56:36.287Z,59.28
2023-04-16T03:59:41.439Z,60.60
2023-04-16T04:02:45.025Z,59.61
2023-04-16T04:05:55.997Z,58.46
2023-04-16T04:09:06.971Z,58.08
2023-04-16T04:12:10.988Z,58.74
2023-04-16T04:15:17.688Z,60.87
2023-04-16T04:18:21.316Z,60.70
2023-04-16T04:21:24.855Z,63.76
2023-04-16T04:24:28.537Z,65.44
2023-04-16T04:27:32.367Z,64.99
2023-04-16T04:30:37.007Z,67.01
2023-04-16T04:33:41.518Z,66.76
2023-04-16T04:36:44.924Z,68.15
2023-04-16T04:39:50.039Z,68.86
2023-04-16T04:42:53.549Z,68.86
2023-04-16T04:45:59.156Z,70.31
2023-04-16T04:49:04.713Z,71.84
2023-04-16T04:52:08.137Z,68.44
2023-04-16T04:55:11.689Z,69.27
2023-04-16T04:58:15.571Z,69.10
2023-04-16T05:01:19.670Z,67.50
2023-04-16T05:04:23.450Z,64.89
2023-04-16T05:07:27.147Z,64.90
2023-04-16T05:10:30.527Z,63.06
2023-04-16T05:13:34.078Z,60.81
2023-04-16T05:16:38.422Z,60.67
2023-04-16T05:19:41.919Z,57.79
2023-04-16T05:22:49.093Z,58.76
2023-04-16T05:25:52.455Z,54.78
2023-04-16T05:28:55.846Z,55.69
2023-04-16T05:31:59.362Z,54.18
2023-04-16T05:35:03.196Z,53.82
2023-04-16T05:38:11.836Z,54.95
2023-04-16T05:41:15.763Z,52.49
2023-04-16T05:47:50.365Z,52.65
2023-04-16T05:50:54.631Z,52.41
2023-04-16T05:54:00.456Z,51.41
2023-04-16T05:57:04.823Z,51.69
2023-04-16T06:00:12.143Z,51.59
2023-04-16T06:03:18.389Z,52.98
2023-04-16T06:06:22.332Z,54.12
2023-04-16T06:09:25.798Z,52.83
2023-04-16T06:12:29.275Z,53.44
2023-04-16T06:15:32.549Z,51.39
2023-04-16T06:18:36.098Z,53.15
2023-04-16T06:21:40.826Z,51.67
2023-04-16T06:24:46.902Z,49.96
2023-04-16T06:27:50.401Z,51.57
2023-04-16T06:30:53.779Z,52.14
2023-04-16T06:33:57.263Z,51.84
2023-04-16T06:37:00.726Z,49.57
2023-04-16T06:40:04.949Z,44.72
2023-04-16T06:43:10.633Z,47.29
2023-04-16T06:46:15.872Z,48.02
2023-04-16T06:49:19.571Z,48.05
2023-04-16T06:52:23.435Z,48.32
2023-04-16T06:55:26.939Z,47.72
2023-04-16T06:58:30.600Z,42.52
2023-04-16T07:01:35.140Z,42.76
2023-04-16T07:04:38.610Z,43.03
2023-04-16T07:07:42.120Z,34.95
2023-04-16T07:10:46.001Z,31.41
2023-04-16T07:13:49.511Z,29.58
2023-04-16T07:16:53.109Z,27.26
2023-04-16T07:19:57.234Z,25.90
2023-04-16T07:23:00.596Z,26.33
2023-04-16T07:26:06.643Z,26.45
2023-04-16T07:29:10.327Z,26.84
2023-04-16T07:32:15.449Z,26.97
2023-04-16T07:35:19.368Z,28.19
2023-04-16T07:38:26.743Z,26.51
2023-04-16T07:41:33.083Z,27.84
2023-04-16T07:44:36.541Z,27.18
2023-04-16T07:47:39.980Z,27.66
2023-04-16T07:50:45.942Z,28.37
2023-04-16T07:53:49.432Z,27.18
2023-04-16T07:56:53.395Z,27.78
2023-04-16T07:59:56.957Z,28.38
2023-04-16T08:03:00.705Z,28.67
2023-04-16T08:06:04.366Z,29.76
2023-04-16T08:09:07.838Z,27.82
2023-04-16T08:12:11.622Z,28.33
2023-04-16T08:15:15.343Z,27.88
2023-04-16T08:18:21.990Z,27.68
2023-04-16T08:21:28.996Z,27.66
2023-04-16T08:24:32.580Z,26.78
2023-04-16T08:27:36.136Z,26.55
2023-04-16T08:30:40.303Z,25.76
2023-04-16T08:33:44.017Z,26.02
2023-04-16T08:36:47.457Z,25.95
2023-04-16T08:39:50.881Z,26.44
2023-04-16T08:43:00.243Z,26.45
2023-04-16T08:46:06.553Z,26.55
2023-04-16T08:49:10.389Z,26.82
2023-04-16T08:52:19.800Z,27.15
2023-04-16T08:55:27.324Z,27.35
2023-04-16T08:58:35.438Z,26.84
2023-04-16T09:01:42.271Z,27.05
2023-04-16T09:04:47.297Z,27.45
2023-04-16T09:07:50.941Z,26.58
2023-04-16T09:10:55.513Z,26.32
2023-04-16T09:14:00.567Z,26.63
2023-04-16T09:17:05.209Z,27.21
2023-04-16T09:20:11.867Z,27.43
2023-04-16T09:26:34.022Z,27.77
2023-04-16T09:29:39.100Z,28.04
2023-04-16T09:32:42.461Z,28.53
2023-04-16T09:35:49.258Z,29.06
2023-04-16T09:38:56.953Z,28.27
2023-04-16T09:42:01.642Z,29.38
2023-04-16T09:45:06.239Z,28.97
2023-04-16T09:48:09.685Z,29.64
2023-04-16T09:51:16.283Z,29.77
2023-04-16T09:54:21.478Z,29.95
2023-04-16T09:57:26.394Z,29.68
2023-04-16T10:00:32.217Z,29.47
2023-04-16T10:03:37.126Z,28.94
2023-04-16T10:06:44.150Z,29.42
2023-04-16T10:09:50.164Z,29.18
2023-04-16T10:12:55.276Z,29.56
2023-04-16T10:15:59.512Z,29.34
2023-04-16T10:19:04.201Z,29.47
2023-04-16T10:22:07.922Z,29.77
2023-04-16T10:25:13.211Z,30.07
2023-04-16T10:28:17.658Z,30.35
2023-04-16T10:31:21.989Z,29.85
2023-04-16T10:34:26.734Z,30.18
2023-04-16T10:37:33.681Z,29.62
2023-04-16T10:40:37.174Z,29.47
2023-04-16T10:43:42.847Z,29.80
2023-04-16T10:47:14.315Z,30.12
2023-04-16T10:50:21.438Z,29.95
2023-04-16T10:53:29.517Z,29.96
2023-04-16T10:56:35.019Z,30.72
2023-04-16T10:59:40.582Z,30.79
2023-04-16T11:02:47.283Z,30.75
2023-04-16T11:05:51.304Z,31.15
2023-04-16T11:08:55.541Z,31.01
2023-04-16T11:11:59.394Z,31.10
2023-04-16T11:15:11.114Z,30.79
2023-04-16T11:18:21.201Z,31.00
2023-04-16T11:21:27.541Z,31.69
2023-04-16T11:24:32.553Z,31.35
2023-04-16T11:27:36.393Z,31.46
2023-04-16T11:30:40.682Z,31.29
2023-04-16T11:33:44.792Z,31.98
2023-04-16T11:36:52.976Z,32.27
2023-04-16T11:39:56.501Z,32.17
2023-04-16T11:43:04.721Z,32.25
2023-04-16T11:46:23.996Z,31.81
2023-04-16T11:49:33.787Z,32.15
2023-04-16T11:52:37.584Z,32.27
2023-04-16T12:05:59.143Z,32.50
2023-04-16T12:09:29.451Z,32.46
2023-04-16T12:12:33.655Z,32.81
2023-04-16T12:15:53.701Z,32.75
2023-04-16T12:19:02.388Z,33.18
2023-04-16T12:22:06.143Z,33.32
2023-04-16T12:25:16.771Z,33.79
2023-04-16T12:28:41.096Z,34.54
2023-04-16T12:31:45.122Z,35.25
2023-04-16T12:34:52.386Z,36.31
2023-04-16T12:37:56.182Z,36.05
2023-04-16T12:41:02.780Z,35.54
2023-04-16T12:44:20.130Z,35.96
2023-04-16T12:47:23.695Z,35.48
2023-04-16T12:50:27.305Z,34.80
2023-04-16T12:53:31.024Z,35.04
2023-04-16T12:56:35.555Z,34.81
2023-04-16T13:02:55.996Z,33.90
2023-04-16T13:05:59.499Z,33.91
2023-04-16T13:09:02.899Z,33.65
2023-04-16T13:12:06.674Z,33.85
2023-04-16T13:15:11.280Z,33.96
2023-04-16T13:18:14.910Z,34.13
2023-04-16T13:21:18.499Z,34.06
2023-04-16T13:24:22.117Z,33.80
2023-04-16T13:27:25.799Z,34.04
2023-04-16T13:30:30.217Z,35.44
2023-04-16T13:33:33.759Z,34.32
2023-04-16T13:36:37.232Z,33.79
2023-04-16T13:39:40.804Z,33.77
2023-04-16T13:42:44.240Z,34.05
2023-04-16T13:45:47.649Z,33.36
2023-04-16T13:48:51.381Z,34.00
2023-04-16T13:51:54.831Z,33.63
2023-04-16T13:55:00.147Z,33.50
2023-04-16T13:58:04.131Z,33.94
2023-04-16T14:01:08.160Z,33.65
2023-04-16T14:04:11.957Z,33.04
2023-04-16T14:07:16.382Z,33.27
2023-04-16T14:10:20.044Z,33.68
2023-04-16T14:13:23.711Z,33.83
2023-04-16T14:16:28.279Z,33.83
2023-04-16T14:19:32.033Z,34.14
2023-04-16T14:22:35.566Z,33.56
2023-04-16T14:25:39.136Z,33.64
2023-04-16T14:28:42.779Z,32.40
2023-04-16T14:31:46.216Z,32.38
2023-04-16T14:34:49.722Z,32.64
2023-04-16T14:37:53.430Z,31.45
2023-04-16T14:40:56.990Z,31.91
2023-04-16T14:44:01.467Z,32.35
2023-04-16T14:47:05.149Z,32.42
2023-04-16T14:50:09.037Z,32.53
2023-04-16T14:53:13.218Z,32.82
2023-04-16T14:56:17.048Z,32.53
2023-04-16T14:59:20.715Z,32.66
2023-04-16T15:02:31.621Z,33.07
2023-04-16T15:05:36.618Z,33.13
2023-04-16T15:08:40.086Z,33.38
2023-04-16T15:11:43.461Z,33.04
2023-04-16T15:14:47.012Z,33.02
2023-04-16T15:17:51.746Z,33.39
2023-04-16T15:20:55.825Z,33.56
2023-04-16T15:24:01.463Z,34.05
2023-04-16T15:27:06.633Z,33.56
2023-04-16T15:30:10.694Z,35.14
2023-04-16T15:33:14.431Z,35.39
2023-04-16T15:36:17.726Z,35.69
2023-04-16T15:39:21.922Z,37.87
2023-04-16T15:42:25.627Z,38.02
2023-04-16T15:45:29.253Z,40.64
2023-04-16T15:48:32.709Z,36.65
2023-04-16T15:51:36.431Z,35.62
2023-04-16T15:54:39.888Z,36.33
2023-04-16T15:57:43.349Z,35.90
2023-04-16T16:00:48.378Z,36.09
2023-04-16T16:03:52.518Z,36.41
2023-04-16T16:06:56.469Z,36.53
2023-04-16T16:09:59.974Z,36.65
2023-04-16T16:13:06.163Z,35.38
2023-04-16T16:16:09.924Z,35.86
2023-04-16T16:19:13.618Z,35.91
2023-04-16T16:22:21.104Z,35.42
2023-04-16T16:25:24.567Z,36.47
2023-04-16T16:28:28.089Z,37.00
2023-04-16T16:31:31.695Z,36.60
2023-04-16T16:34:35.191Z,36.53
2023-04-16T16:37:39.241Z,36.80
2023-04-16T16:40:42.615Z,37.13
2023-04-16T16:43:46.234Z,36.68
2023-04-16T16:46:50.168Z,37.46
2023-04-16T16:49:55.490Z,37.16
2023-04-16T16:53:00.295Z,37.08
2023-04-16T16:56:03.849Z,37.02
2023-04-16T16:59:08.377Z,37.94
2023-04-16T17:02:11.942Z,38.13
2023-04-16T17:05:15.464Z,37.37
2023-04-16T17:08:18.929Z,38.53
2023-04-16T17:11:22.331Z,37.73
2023-04-16T17:14:25.827Z,37.88
2023-04-16T17:17:29.899Z,38.34
2023-04-16T17:20:34.579Z,38.59
2023-04-16T17:23:39.987Z,38.21
2023-04-16T17:26:44.772Z,38.19
2023-04-16T17:29:48.176Z,38.41
2023-04-16T17:32:51.689Z,38.02
2023-04-16T17:35:55.267Z,38.21
2023-04-16T17:38:59.255Z,38.45
2023-04-16T17:42:03.921Z,38.53
2023-04-16T17:45:08.259Z,39.02
2023-04-16T17:48:11.858Z,39.31
2023-04-16T17:51:17.209Z,39.63
2023-04-16T17:54:20.678Z,40.51
2023-04-16T17:57:24.136Z,39.83
2023-04-16T18:00:27.489Z,39.86
2023-04-16T18:03:33.074Z,39.74
2023-04-16T18:06:36.943Z,40.29
2023-04-16T18:09:40.324Z,40.49
2023-04-16T18:12:43.696Z,41.02
2023-04-16T18:15:47.221Z,41.27
2023-04-16T18:18:50.586Z,41.57
2023-04-16T18:21:54.038Z,41.86
2023-04-16T18:24:58.111Z,41.99
2023-04-16T18:28:01.906Z,41.83
2023-04-16T18:31:07.508Z,42.03
2023-04-16T18:34:11.373Z,41.66
2023-04-16T18:37:14.789Z,41.42
2023-04-16T18:40:18.888Z,41.87
2023-04-16T18:43:22.342Z,41.96
2023-04-16T18:46:26.031Z,42.24
2023-04-16T18:49:29.385Z,42.17
2023-04-16T18:52:32.863Z,41.81
2023-04-16T18:55:36.312Z,42.35
2023-04-16T18:58:39.923Z,42.52
2023-04-16T19:01:43.344Z,43.03
2023-04-16T19:04:47.163Z,42.85
2023-04-16T19:07:50.663Z,43.38
2023-04-16T19:10:54.043Z,43.66
2023-04-16T19:13:58.403Z,43.70
2023-04-16T19:17:01.805Z,43.58
2023-04-16T19:20:11.583Z,43.50
2023-04-16T19:23:16.136Z,43.10
2023-04-16T19:26:19.688Z,43.35
2023-04-16T19:29:23.233Z,43.31
2023-04-16T19:32:26.776Z,43.52
2023-04-16T19:35:30.942Z,43.83
2023-04-16T19:38:34.364Z,43.76
2023-04-16T19:41:37.733Z,43.83
2023-04-16T19:44:41.186Z,43.96
2023-04-16T19:47:44.672Z,43.98
2023-04-16T19:50:48.562Z,43.93
2023-04-16T19:57:09.370Z,44.62
2023-04-16T20:00:13.299Z,44.57
2023-04-16T20:03:16.863Z,44.07
2023-04-16T20:06:20.270Z,44.57
2023-04-16T20:09:24.497Z,44.85
2023-04-16T20:12:27.965Z,44.97
2023-04-16T20:15:31.313Z,44.96
2023-04-16T20:18:42.066Z,44.93
2023-04-16T20:21:46.307Z,45.41
2023-04-16T20:24:49.759Z,45.32
2023-04-16T20:27:53.183Z,45.33
2023-04-16T20:30:56.667Z,45.25
2023-04-16T20:34:00.131Z,45.64
2023-04-16T20:37:03.580Z,45.32
2023-04-16T20:40:09.661Z,45.12
2023-04-16T20:43:14.894Z,45.11
2023-04-16T20:46:18.442Z,44.07
2023-04-16T20:49:22.001Z,44.44
2023-04-16T20:52:25.500Z,44.47
2023-04-16T20:55:29.001Z,44.71
2023-04-16T20:58:32.580Z,44.82
2023-04-16T21:01:36.160Z,44.57
2023-04-16T21:04:39.806Z,45.13
2023-04-16T21:07:43.466Z,45.00
2023-04-16T21:10:47.675Z,45.43
2023-04-16T21:13:51.191Z,45.11
2023-04-16T21:16:55.609Z,45.39
2023-04-16T21:19:59.255Z,44.81
2023-04-16T21:23:03.853Z,45.08
2023-04-16T21:26:07.259Z,45.44
2023-04-16T21:29:10.811Z,45.58
2023-04-16T21:32:15.429Z,45.40
2023-04-16T21:35:19.286Z,45.05
2023-04-16T21:38:23.075Z,44.54
2023-04-16T21:41:27.204Z,44.19
2023-04-16T21:44:30.553Z,44.04
2023-04-16T21:47:33.955Z,44.23
2023-04-16T21:50:37.421Z,43.82
2023-04-16T21:53:40.844Z,42.47
2023-04-16T21:56:44.228Z,42.73
2023-04-16T21:59:47.598Z,43.03
2023-04-16T22:02:52.281Z,42.38
2023-04-16T22:06:01.756Z,42.81
2023-04-16T22:09:06.063Z,42.32
2023-04-16T22:12:12.368Z,42.30
2023-04-16T22:15:15.883Z,42.84
2023-04-16T22:18:19.680Z,42.35
2023-04-16T22:21:23.095Z,42.03
2023-04-16T22:24:26.680Z,41.47
2023-04-16T22:27:30.252Z,41.13
2023-04-16T22:30:39.197Z,40.61
2023-04-16T22:33:43.020Z,38.66
2023-04-16T22:36:46.835Z,37.78
2023-04-16T22:39:50.273Z,37.94
2023-04-16T22:42:53.838Z,35.82
2023-04-16T22:46:08.809Z,32.45
2023-04-16T22:49:12.578Z,30.24
2023-04-16T22:52:16.199Z,27.90
2023-04-16T22:55:19.640Z,25.45
2023-04-16T22:58:23.303Z,25.46
2023-04-16T23:01:26.860Z,25.33
2023-04-16T23:04:30.447Z,25.51
2023-04-16T23:07:34.134Z,25.37
2023-04-16T23:10:37.866Z,24.41
2023-04-16T23:13:41.588Z,24.16
2023-04-16T23:16:45.309Z,24.03
2023-04-16T23:19:48.724Z,23.51
2023-04-16T23:22:53.515Z,23.96
2023-04-16T23:25:56.962Z,22.52
2023-04-16T23:29:00.941Z,21.64
2023-04-16T23:32:04.483Z,22.54
2023-04-16T23:35:08.554Z,21.65
2023-04-16T23:38:12.135Z,20.50
2023-04-16T23:41:16.204Z,21.15
2023-04-16T23:44:19.620Z,20.57
2023-04-16T23:47:24.326Z,19.34
2023-04-16T23:50:27.754Z,17.97
2023-04-16T23:53:31.233Z,17.74
2023-04-16T23:56:34.881Z,18.22
2023-04-16T23:59:38.306Z,18.59
